createdAt,value
2023-01-17T00:02:17.267Z,1.00
2023-01-17T00:05:02.167Z,1.10
2023-01-17T00:07:47.670Z,1.35
2023-01-17T00:10:15.718Z,1.10
2023-01-17T00:12:54.080Z,1.10
2023-01-17T00:15:25.573Z,1.20
2023-01-17T00:17:52.926Z,1.00
2023-01-17T00:20:42.469Z,1.02
2023-01-17T00:23:33.231Z,1.13
2023-01-17T00:26:05.440Z,1.27
2023-01-17T00:28:36.921Z,1.40
2023-01-17T00:31:04.793Z,1.40
2023-01-17T00:33:32.783Z,1.40
2023-01-17T00:36:00.672Z,1.42
2023-01-17T00:38:30.024Z,1.45
2023-01-17T00:41:16.716Z,2.38
2023-01-17T00:44:01.846Z,1.73
2023-01-17T00:46:46.740Z,1.60
2023-01-17T00:49:31.962Z,1.58
2023-01-17T00:52:16.829Z,2.00
2023-01-17T00:55:04.622Z,1.65
2023-01-17T00:57:49.404Z,1.40
2023-01-17T01:00:37.332Z,1.50
2023-01-17T01:03:29.949Z,1.60
2023-01-17T01:06:14.814Z,1.40
2023-01-17T01:08:59.786Z,0.90
2023-01-17T01:11:50.518Z,1.08
2023-01-17T01:14:37.139Z,0.80
2023-01-17T01:17:22.623Z,2.53
2023-01-17T01:20:09.922Z,1.17
2023-01-17T01:22:55.286Z,1.30
2023-01-17T01:25:40.462Z,1.65
2023-01-17T01:28:29.353Z,1.67
2023-01-17T01:31:14.643Z,1.95
2023-01-17T01:33:41.639Z,1.63
2023-01-17T01:36:09.602Z,1.73
2023-01-17T01:38:36.913Z,1.50
2023-01-17T01:41:03.907Z,1.27
2023-01-17T01:43:53.879Z,1.30
2023-01-17T01:46:38.535Z,1.40
2023-01-17T01:49:24.826Z,1.83
2023-01-17T01:52:05.907Z,1.80
2023-01-17T01:54:40.965Z,1.90
2023-01-17T01:57:13.931Z,2.45
2023-01-17T01:59:43.279Z,2.47
2023-01-17T02:02:09.825Z,2.28
2023-01-17T02:04:36.990Z,1.70
2023-01-17T02:07:18.891Z,1.70
2023-01-17T02:09:45.718Z,1.83
2023-01-17T02:12:16.596Z,1.65
2023-01-17T02:14:52.135Z,2.00
2023-01-17T02:17:56.279Z,2.40
2023-01-17T02:20:40.947Z,1.50
2023-01-17T02:23:49.884Z,2.00
2023-01-17T02:26:37.689Z,2.10
2023-01-17T02:29:58.773Z,1.58
2023-01-17T02:32:40.204Z,2.97
2023-01-17T02:35:28.383Z,2.17
2023-01-17T02:38:33.270Z,1.70
2023-01-17T02:41:14.538Z,1.90
2023-01-17T02:43:41.483Z,1.73
2023-01-17T02:46:09.812Z,2.67
2023-01-17T02:48:38.409Z,3.28
2023-01-17T02:51:16.075Z,1.95
2023-01-17T02:54:10.168Z,1.75
2023-01-17T02:57:05.831Z,2.10
2023-01-17T02:59:50.325Z,2.17
2023-01-17T03:02:22.435Z,2.47
2023-01-17T03:05:09.002Z,2.15
2023-01-17T03:07:37.541Z,2.10
2023-01-17T03:10:05.964Z,2.55
2023-01-17T03:12:35.588Z,2.20
2023-01-17T03:15:02.152Z,2.30
2023-01-17T03:17:32.845Z,2.80
2023-01-17T03:19:59.571Z,2.20
2023-01-17T03:22:26.055Z,2.10
2023-01-17T03:24:52.568Z,3.15
2023-01-17T03:27:19.004Z,2.78
2023-01-17T03:29:45.506Z,2.80
2023-01-17T03:32:11.977Z,3.15
2023-01-17T03:34:38.499Z,3.45
2023-01-17T03:37:04.924Z,2.67
2023-01-17T03:39:31.452Z,4.13
2023-01-17T03:41:57.943Z,3.33
2023-01-17T03:44:24.418Z,3.60
2023-01-17T03:46:50.917Z,3.30
2023-01-17T03:49:17.420Z,3.95
2023-01-17T03:51:43.919Z,3.40
2023-01-17T03:54:10.473Z,3.30
2023-01-17T03:56:37.589Z,4.68
2023-01-17T03:59:04.093Z,2.50
2023-01-17T04:01:30.749Z,2.63
2023-01-17T04:03:57.302Z,2.65
2023-01-17T04:06:23.835Z,2.25
2023-01-17T04:08:50.254Z,3.10
2023-01-17T04:11:16.731Z,2.28
2023-01-17T04:13:43.239Z,2.25
2023-01-17T04:16:16.929Z,2.00
2023-01-17T04:18:46.138Z,1.60
2023-01-17T04:21:12.607Z,1.60
2023-01-17T04:23:39.188Z,1.52
2023-01-17T04:26:05.685Z,1.58
2023-01-17T04:28:32.359Z,1.70
2023-01-17T04:31:00.043Z,1.40
2023-01-17T04:33:26.722Z,1.70
2023-01-17T04:35:54.163Z,1.50
2023-01-17T04:38:21.458Z,2.20
2023-01-17T04:40:48.697Z,1.27
2023-01-17T04:43:16.243Z,1.40
2023-01-17T04:45:43.268Z,1.40
2023-01-17T04:48:12.572Z,1.30
2023-01-17T04:50:39.948Z,1.17
2023-01-17T04:53:06.642Z,1.20
2023-01-17T04:55:33.171Z,1.20
2023-01-17T04:57:59.694Z,0.88
2023-01-17T05:00:26.212Z,0.90
2023-01-17T05:02:52.967Z,0.90
2023-01-17T05:05:19.473Z,0.82
2023-01-17T05:07:53.379Z,1.00
2023-01-17T05:10:19.845Z,0.80
2023-01-17T05:12:53.870Z,1.00
2023-01-17T05:15:20.609Z,0.75
2023-01-17T05:17:47.084Z,0.88
2023-01-17T05:20:13.546Z,1.20
2023-01-17T05:22:40.048Z,1.33
2023-01-17T05:25:08.102Z,1.33
2023-01-17T05:27:34.720Z,2.22
2023-01-17T05:30:01.208Z,2.00
2023-01-17T05:32:28.185Z,1.60
2023-01-17T05:34:54.910Z,2.20
2023-01-17T05:37:21.343Z,1.77
2023-01-17T05:39:47.820Z,1.60
2023-01-17T05:42:14.281Z,1.63
2023-01-17T05:44:40.805Z,2.22
2023-01-17T05:47:07.261Z,1.45
2023-01-17T05:49:34.300Z,2.03
2023-01-17T05:52:00.809Z,2.28
2023-01-17T05:54:29.927Z,2.00
2023-01-17T05:56:56.422Z,1.60
2023-01-17T05:59:36.181Z,2.05
2023-01-17T06:02:03.630Z,2.28
2023-01-17T06:04:30.174Z,2.28
2023-01-17T06:06:56.616Z,1.98
2023-01-17T06:09:23.167Z,2.33
2023-01-17T06:11:49.604Z,1.70
2023-01-17T06:14:16.037Z,1.95
2023-01-17T06:16:42.561Z,3.58
2023-01-17T06:19:09.551Z,1.42
2023-01-17T06:21:36.079Z,1.60
2023-01-17T06:24:04.217Z,2.15
2023-01-17T06:26:30.921Z,1.65
2023-01-17T06:28:57.497Z,1.85
2023-01-17T06:31:24.100Z,1.08
2023-01-17T06:33:50.609Z,1.05
2023-01-17T06:36:17.095Z,1.40
2023-01-17T06:38:43.578Z,0.90
2023-01-17T06:41:10.649Z,1.40
2023-01-17T06:43:37.135Z,2.05
2023-01-17T06:46:03.626Z,0.80
2023-01-17T06:48:30.095Z,0.90
2023-01-17T06:50:57.867Z,0.80
2023-01-17T06:53:25.026Z,1.10
2023-01-17T06:55:52.516Z,0.93
2023-01-17T06:58:18.997Z,0.80
2023-01-17T07:00:45.741Z,0.70
2023-01-17T07:03:24.396Z,0.50
2023-01-17T07:05:51.954Z,0.88
2023-01-17T07:08:19.847Z,0.60
2023-01-17T07:10:47.672Z,0.60
2023-01-17T07:13:14.699Z,0.50
2023-01-17T07:15:41.347Z,0.60
2023-01-17T07:18:07.895Z,0.60
2023-01-17T07:20:34.418Z,1.40
2023-01-17T07:23:00.909Z,0.68
2023-01-17T07:25:27.884Z,1.80
2023-01-17T07:27:57.469Z,0.80
2023-01-17T07:30:24.830Z,2.35
2023-01-17T07:32:53.252Z,0.90
2023-01-17T07:35:20.427Z,1.00
2023-01-17T07:37:50.871Z,1.05
2023-01-17T07:40:18.800Z,0.95
2023-01-17T07:42:45.948Z,0.98
2023-01-17T07:45:14.006Z,1.35
2023-01-17T07:47:40.612Z,1.10
2023-01-17T07:50:08.645Z,1.85
2023-01-17T07:52:35.163Z,1.50
2023-01-17T07:55:01.638Z,1.77
2023-01-17T07:57:29.068Z,1.48
2023-01-17T07:59:55.807Z,0.85
2023-01-17T08:02:23.575Z,1.05
2023-01-17T08:04:50.134Z,1.42
2023-01-17T08:07:16.827Z,1.17
2023-01-17T08:09:44.281Z,1.55
2023-01-17T08:12:10.758Z,1.45
2023-01-17T08:14:37.230Z,1.77
2023-01-17T08:17:15.913Z,1.73
2023-01-17T08:19:42.426Z,2.55
2023-01-17T08:22:09.209Z,2.35
2023-01-17T08:24:35.754Z,1.33
2023-01-17T08:27:02.271Z,2.88
2023-01-17T08:29:29.366Z,1.10
2023-01-17T08:31:55.898Z,4.63
2023-01-17T08:34:22.480Z,2.15
2023-01-17T08:36:48.956Z,3.33
2023-01-17T08:39:15.420Z,1.30
2023-01-17T08:41:41.994Z,1.45
2023-01-17T08:44:08.427Z,1.50
2023-01-17T08:46:38.118Z,1.20
2023-01-17T08:49:04.718Z,1.85
2023-01-17T08:51:32.823Z,3.13
2023-01-17T08:53:59.353Z,1.38
2023-01-17T08:56:26.897Z,2.00
2023-01-17T08:58:53.837Z,1.90
2023-01-17T09:01:23.991Z,4.15
2023-01-17T09:03:53.663Z,3.15
2023-01-17T09:06:20.353Z,2.42
2023-01-17T09:08:47.885Z,2.85
2023-01-17T09:11:16.986Z,2.20
2023-01-17T09:13:44.089Z,3.15
2023-01-17T09:16:10.677Z,3.55
2023-01-17T09:18:37.386Z,3.03
2023-01-17T09:21:15.144Z,2.35
2023-01-17T09:23:42.353Z,6.32
2023-01-17T09:26:18.668Z,3.08
2023-01-17T09:28:45.307Z,4.18
2023-01-17T09:31:11.790Z,3.97
2023-01-17T09:33:38.666Z,2.85
2023-01-17T09:36:05.486Z,8.07
2023-01-17T09:38:32.640Z,4.53
2023-01-17T09:41:01.552Z,3.50
2023-01-17T09:43:40.988Z,2.65
2023-01-17T09:46:22.473Z,4.45
2023-01-17T09:48:57.698Z,2.70
2023-01-17T09:51:24.522Z,3.58
2023-01-17T09:53:53.416Z,6.20
2023-01-17T09:56:29.534Z,5.00
2023-01-17T09:59:21.335Z,4.93
2023-01-17T10:02:28.117Z,5.63
2023-01-17T10:04:55.552Z,6.07
2023-01-17T10:07:32.399Z,4.85
2023-01-17T10:09:59.047Z,9.32
2023-01-17T10:12:38.605Z,4.50
2023-01-17T10:15:23.075Z,3.80
2023-01-17T10:18:03.823Z,9.07
2023-01-17T10:20:44.855Z,8.25
2023-01-17T10:23:46.896Z,3.60
2023-01-17T10:26:22.104Z,6.47
2023-01-17T10:28:51.621Z,4.88
2023-01-17T10:31:26.819Z,6.22
2023-01-17T10:33:55.056Z,6.10
2023-01-17T10:36:24.563Z,6.25
2023-01-17T10:39:14.568Z,6.10
2023-01-17T10:41:45.024Z,6.03
2023-01-17T10:44:33.133Z,5.55
2023-01-17T10:47:31.092Z,4.90
2023-01-17T10:49:59.380Z,6.63
2023-01-17T10:52:45.251Z,7.82
2023-01-17T10:55:16.938Z,6.13
2023-01-17T10:57:45.745Z,7.32
2023-01-17T11:00:43.976Z,9.38
2023-01-17T11:03:12.870Z,5.78
2023-01-17T11:05:43.155Z,11.68
2023-01-17T11:08:14.400Z,8.30
2023-01-17T11:10:45.517Z,6.38
2023-01-17T11:13:26.467Z,5.55
2023-01-17T11:15:59.869Z,5.50
2023-01-17T11:18:40.319Z,7.30
2023-01-17T11:21:25.857Z,9.65
2023-01-17T11:23:58.443Z,7.00
2023-01-17T11:26:31.638Z,8.10
2023-01-17T11:29:35.926Z,8.90
2023-01-17T11:32:22.109Z,13.10
2023-01-17T11:35:15.221Z,8.27
2023-01-17T11:37:49.642Z,8.10
2023-01-17T11:40:24.052Z,5.03
2023-01-17T11:43:20.395Z,6.18
2023-01-17T11:46:01.130Z,8.13
2023-01-17T11:48:37.990Z,5.25
2023-01-17T11:51:17.641Z,6.40
2023-01-17T11:53:49.120Z,8.90
2023-01-17T11:56:28.021Z,7.47
2023-01-17T11:59:12.252Z,6.00
2023-01-17T12:01:50.692Z,6.15
2023-01-17T12:04:23.164Z,6.85
2023-01-17T12:07:02.916Z,5.75
2023-01-17T12:09:52.623Z,6.10
2023-01-17T12:12:40.677Z,5.32
2023-01-17T12:15:23.233Z,8.38
2023-01-17T12:18:18.990Z,5.05
2023-01-17T12:21:10.643Z,5.50
2023-01-17T12:24:05.068Z,3.38
2023-01-17T12:26:50.137Z,5.93
2023-01-17T12:29:58.853Z,5.80
2023-01-17T12:32:39.051Z,5.90
2023-01-17T12:35:20.956Z,6.80
2023-01-17T12:38:04.248Z,6.97
2023-01-17T12:40:39.852Z,6.50
2023-01-17T12:43:18.688Z,8.25
2023-01-17T12:45:49.821Z,6.35
2023-01-17T12:48:21.355Z,5.97
2023-01-17T12:51:11.411Z,9.50
2023-01-17T12:53:45.275Z,7.43
2023-01-17T12:56:24.855Z,6.07
2023-01-17T12:59:00.984Z,6.63
2023-01-17T13:01:39.652Z,7.63
2023-01-17T13:04:11.901Z,9.32
2023-01-17T13:06:58.566Z,7.03
2023-01-17T13:09:25.883Z,7.75
2023-01-17T13:12:02.289Z,6.95
2023-01-17T13:14:29.051Z,7.63
2023-01-17T13:17:03.339Z,8.10
2023-01-17T13:19:51.883Z,6.43
2023-01-17T13:22:21.815Z,7.55
2023-01-17T13:25:12.312Z,8.95
2023-01-17T13:28:05.141Z,7.18
2023-01-17T13:30:43.386Z,7.28
2023-01-17T13:33:23.136Z,8.77
2023-01-17T13:36:18.879Z,7.90
2023-01-17T13:38:58.129Z,4.68
2023-01-17T13:41:33.471Z,8.50
2023-01-17T13:44:19.973Z,10.95
2023-01-17T13:47:12.445Z,5.93
2023-01-17T13:49:38.871Z,7.13
2023-01-17T13:52:05.440Z,8.63
2023-01-17T13:54:32.822Z,9.50
2023-01-17T13:57:40.664Z,8.23
2023-01-17T14:00:21.644Z,8.70
2023-01-17T14:02:53.303Z,5.57
2023-01-17T14:05:30.828Z,7.40
2023-01-17T14:08:03.910Z,7.97
2023-01-17T14:10:51.974Z,7.20
2023-01-17T14:13:35.626Z,9.63
2023-01-17T14:16:22.805Z,9.45
2023-01-17T14:18:49.933Z,7.95
2023-01-17T14:21:25.059Z,5.43
2023-01-17T14:23:59.800Z,7.35
2023-01-17T14:26:41.590Z,9.70
2023-01-17T14:29:42.519Z,9.73
2023-01-17T14:32:22.091Z,12.05
2023-01-17T14:34:51.411Z,13.90
2023-01-17T14:37:24.580Z,6.65
2023-01-17T14:39:51.453Z,7.15
2023-01-17T14:42:21.795Z,6.97
2023-01-17T14:44:53.192Z,5.90
2023-01-17T14:47:19.997Z,8.15
2023-01-17T14:49:46.475Z,9.85
2023-01-17T14:52:18.050Z,8.20
2023-01-17T14:54:51.642Z,9.98
2023-01-17T14:57:29.502Z,15.82
2023-01-17T15:00:19.830Z,7.70
2023-01-17T15:02:52.180Z,7.13
2023-01-17T15:05:24.559Z,11.00
2023-01-17T15:07:54.317Z,10.48
2023-01-17T15:10:45.664Z,11.15
2023-01-17T15:13:19.948Z,8.87
2023-01-17T15:15:49.471Z,9.13
2023-01-17T15:18:22.191Z,6.68
2023-01-17T15:21:04.534Z,9.73
2023-01-17T15:23:39.572Z,11.35
2023-01-17T15:26:11.370Z,6.80
2023-01-17T15:28:38.059Z,8.18
2023-01-17T15:31:17.236Z,9.25
2023-01-17T15:33:47.040Z,12.27
2023-01-17T15:36:33.058Z,9.32
2023-01-17T15:39:17.331Z,11.85
2023-01-17T15:41:44.219Z,8.95
2023-01-17T15:44:36.128Z,8.55
2023-01-17T15:50:01.755Z,8.23
2023-01-17T15:52:29.393Z,19.45
2023-01-17T15:55:13.616Z,13.15
2023-01-17T15:57:40.267Z,11.27
2023-01-17T16:00:18.825Z,16.13
2023-01-17T16:02:55.303Z,18.50
2023-01-17T16:05:22.428Z,29.50
2023-01-17T16:08:09.475Z,20.77
2023-01-17T16:10:37.796Z,18.00
2023-01-17T16:13:06.086Z,23.58
2023-01-17T16:15:35.216Z,26.35
2023-01-17T16:18:13.937Z,21.95
2023-01-17T16:20:43.579Z,22.13
2023-01-17T16:23:10.706Z,27.27
2023-01-17T16:25:37.972Z,25.55
2023-01-17T16:28:05.509Z,25.30
2023-01-17T16:30:32.818Z,25.50
2023-01-17T16:32:59.732Z,22.70
2023-01-17T16:35:32.344Z,17.35
2023-01-17T16:38:05.898Z,12.60
2023-01-17T16:40:38.275Z,11.88
2023-01-17T16:43:04.979Z,12.93
2023-01-17T16:45:31.591Z,7.35
2023-01-17T16:47:58.135Z,9.27
2023-01-17T16:50:25.157Z,15.55
2023-01-17T16:52:52.496Z,30.70
2023-01-17T16:55:22.036Z,44.55
2023-01-17T16:57:56.053Z,62.63
2023-01-17T17:00:22.969Z,76.95
2023-01-17T17:02:51.406Z,55.85
2023-01-17T17:05:18.220Z,41.67
2023-01-17T17:07:46.287Z,26.77
2023-01-17T17:10:15.268Z,24.63
2023-01-17T17:12:42.549Z,24.08
2023-01-17T17:15:10.364Z,25.50
2023-01-17T17:17:38.228Z,21.35
2023-01-17T17:20:06.297Z,21.60
2023-01-17T17:22:33.013Z,25.90
2023-01-17T17:24:59.457Z,19.67
2023-01-17T17:27:28.680Z,18.88
2023-01-17T17:29:55.405Z,19.98
2023-01-17T17:32:21.902Z,17.00
2023-01-17T17:34:50.720Z,17.05
2023-01-17T17:37:17.775Z,19.92
2023-01-17T17:39:45.280Z,16.98
2023-01-17T17:42:12.566Z,23.27
2023-01-17T17:44:39.055Z,28.48
2023-01-17T17:47:05.583Z,24.85
2023-01-17T17:49:32.103Z,23.10
2023-01-17T17:52:06.711Z,28.08
2023-01-17T17:54:33.558Z,29.75
2023-01-17T17:57:00.159Z,32.03
2023-01-17T17:59:26.987Z,24.73
2023-01-17T18:01:53.606Z,26.05
2023-01-17T18:04:21.542Z,28.73
2023-01-17T18:06:48.346Z,20.40
2023-01-17T18:09:14.959Z,23.63
2023-01-17T18:11:43.208Z,28.80
2023-01-17T18:14:13.268Z,28.52
2023-01-17T18:16:42.080Z,31.15
2023-01-17T18:19:13.528Z,32.92
2023-01-17T18:21:43.545Z,35.03
2023-01-17T18:24:12.445Z,41.35
2023-01-17T18:26:51.061Z,33.65
2023-01-17T18:29:19.592Z,42.60
2023-01-17T18:31:47.081Z,43.17
2023-01-17T18:34:21.096Z,36.63
2023-01-17T18:36:47.573Z,37.55
2023-01-17T18:39:19.417Z,47.88
2023-01-17T18:44:12.835Z,43.45
2023-01-17T18:46:40.310Z,27.38
2023-01-17T18:49:06.920Z,29.67
2023-01-17T18:51:34.541Z,35.20
2023-01-17T18:54:04.910Z,37.30
2023-01-17T18:56:36.523Z,35.78
2023-01-17T18:59:05.674Z,24.55
2023-01-17T19:01:35.663Z,30.63
2023-01-17T19:04:04.415Z,26.98
2023-01-17T19:06:36.963Z,22.20
2023-01-17T19:09:04.943Z,16.33
2023-01-17T19:11:31.546Z,18.08
2023-01-17T19:13:58.048Z,20.42
2023-01-17T19:16:32.807Z,25.27
2023-01-17T19:19:03.373Z,26.60
2023-01-17T19:21:31.617Z,30.02
2023-01-17T19:23:58.538Z,33.92
2023-01-17T19:26:27.374Z,24.30
2023-01-17T19:29:06.631Z,26.13
2023-01-17T19:31:39.049Z,24.02
2023-01-17T19:34:05.598Z,19.55
2023-01-17T19:36:34.419Z,21.65
2023-01-17T19:39:06.403Z,19.67
2023-01-17T19:41:35.326Z,24.38
2023-01-17T19:44:07.175Z,25.63
2023-01-17T19:46:34.560Z,37.22
2023-01-17T19:49:01.461Z,33.05
2023-01-17T19:51:28.535Z,14.77
2023-01-17T19:53:55.494Z,11.35
2023-01-17T19:56:25.977Z,12.00
2023-01-17T19:58:53.393Z,13.15
2023-01-17T20:01:23.995Z,14.88
2023-01-17T20:03:52.514Z,21.40
2023-01-17T20:06:24.722Z,45.42
2023-01-17T20:08:51.292Z,79.38
2023-01-17T20:11:23.828Z,35.88
2023-01-17T20:13:55.967Z,16.50
2023-01-17T20:16:26.824Z,13.20
2023-01-17T20:18:53.636Z,15.45
2023-01-17T20:21:32.286Z,15.77
2023-01-17T20:24:00.597Z,16.17
2023-01-17T20:26:34.587Z,17.98
2023-01-17T20:29:04.644Z,14.85
2023-01-17T20:31:32.190Z,18.65
2023-01-17T20:33:58.825Z,22.23
2023-01-17T20:36:28.888Z,18.52
2023-01-17T20:38:57.034Z,15.48
2023-01-17T20:41:34.384Z,14.68
2023-01-17T20:44:03.249Z,17.75
2023-01-17T20:46:35.731Z,14.38
2023-01-17T20:49:07.626Z,17.67
2023-01-17T20:54:09.978Z,17.23
2023-01-17T20:56:37.799Z,17.25
2023-01-17T20:59:10.936Z,17.33
2023-01-17T21:01:38.220Z,15.98
2023-01-17T21:04:05.581Z,18.95
2023-01-17T21:06:32.194Z,16.73
2023-01-17T21:08:59.774Z,14.32
2023-01-17T21:11:30.704Z,13.93
2023-01-17T21:13:57.510Z,12.37
2023-01-17T21:16:25.244Z,14.27
2023-01-17T21:18:52.564Z,11.57
2023-01-17T21:21:25.093Z,13.25
2023-01-17T21:23:55.870Z,11.68
2023-01-17T21:26:25.865Z,13.77
2023-01-17T21:28:55.403Z,11.40
2023-01-17T21:31:28.742Z,18.10
2023-01-17T21:34:00.605Z,18.63
2023-01-17T21:38:57.383Z,14.85
2023-01-17T21:41:29.262Z,12.20
2023-01-17T21:46:27.493Z,10.77
2023-01-17T21:48:54.221Z,10.43
2023-01-17T21:51:21.780Z,8.93
2023-01-17T21:53:48.437Z,7.53
2023-01-17T21:56:33.531Z,9.80
2023-01-17T21:59:03.717Z,7.97
2023-01-17T22:01:39.675Z,10.73
2023-01-17T22:04:06.361Z,7.32
2023-01-17T22:06:39.300Z,10.82
2023-01-17T22:09:06.164Z,9.70
2023-01-17T22:11:38.713Z,11.38
2023-01-17T22:14:11.059Z,13.23
2023-01-17T22:16:37.555Z,9.88
2023-01-17T22:19:09.063Z,9.93
2023-01-17T22:21:38.608Z,14.02
2023-01-17T22:24:06.550Z,12.45
2023-01-17T22:26:33.210Z,11.43
2023-01-17T22:29:00.817Z,24.67
2023-01-17T22:31:28.393Z,26.60
2023-01-17T22:34:03.851Z,23.10
2023-01-17T22:36:34.031Z,20.98
2023-01-17T22:39:00.980Z,15.50
2023-01-17T22:41:29.895Z,12.18
2023-01-17T22:43:58.741Z,11.98
2023-01-17T22:46:31.057Z,13.48
2023-01-17T22:49:02.851Z,11.55
2023-01-17T22:51:29.726Z,10.60
2023-01-17T22:53:58.846Z,11.70
2023-01-17T22:56:31.916Z,8.55
2023-01-17T22:59:01.060Z,13.63
2023-01-17T23:01:34.718Z,10.95
2023-01-17T23:04:07.055Z,9.88
2023-01-17T23:06:36.997Z,11.68
2023-01-17T23:09:15.309Z,9.32
2023-01-17T23:11:49.691Z,7.18
2023-01-17T23:14:21.833Z,8.23
2023-01-17T23:17:22.095Z,6.30
2023-01-17T23:19:51.335Z,9.23
2023-01-17T23:22:30.606Z,9.77
2023-01-17T23:24:58.431Z,7.90
2023-01-17T23:27:55.147Z,9.25
2023-01-17T23:30:26.300Z,10.95
2023-01-17T23:32:55.278Z,5.55
2023-01-17T23:35:33.817Z,9.75
2023-01-17T23:38:31.697Z,10.20
2023-01-17T23:41:25.115Z,10.60
2023-01-17T23:43:56.859Z,8.75
2023-01-17T23:46:25.317Z,6.82
2023-01-17T23:48:51.992Z,6.20
2023-01-17T23:51:18.644Z,7.40
2023-01-17T23:53:48.850Z,7.55
2023-01-17T23:56:19.892Z,7.25
2023-01-17T23:58:48.314Z,9.20
